Azalea, Oregon
Current Conditions -  °F | °C
As of 9:56 AM on Sunday 25 Jan 2015 (Local Time) from KSXT Reporting Station
Clear Clear  
Wind Chill: 57°   Ceiling: Unl
Heat Index: 57°   Visibility: 10mi
Dew Point: 35°   Wind: 21mph
Humidity: 44%   Direction: 120°ESE
Pressure: 30.22"   Gusts: NA
Location:  42.8°N, 123.26°W
Report Text: KSXT 251756Z AUTO 12018KT 10SM CLR 14/02 A3022 RMK AO2 SLP208 T01390017 10144 20117 55003
Loading
Personal Weather Stations






























Interactive Weather Map New forecast layout! Learn more

10-Day Weather Forecast

Advertisements
Track Severe Weather on mobile